Time,TemperatureF,DewpointF,PressureIn,WindDirection,WindDirectionDegrees,WindSpeedMPH,WindSpeedGustMPH,Humidity,HourlyPrecipIn,Conditions,Clouds,dailyrainin,SoftwareType,DateUTC
2013-03-03 00:00:00,30.9,17.1,29.94,NNW,335,8.0,8.0,56,0.00,,---,0.00,VWS V14.01,2013-03-03 05:00:00,
2013-03-03 00:04:00,30.9,17.5,29.95,North,9,4.0,11.0,57,0.00,,---,0.00,VWS V14.01,2013-03-03 05:04:00,
2013-03-03 00:10:00,30.8,17.4,29.94,NW,323,7.0,7.0,57,0.00,,---,0.00,VWS V14.01,2013-03-03 05:10:00,
2013-03-03 00:15:00,30.8,17.4,29.94,West,271,7.0,12.0,57,0.00,,---,0.00,VWS V14.01,2013-03-03 05:15:00,
2013-03-03 00:20:00,30.8,17.4,29.94,WNW,302,6.0,7.0,57,0.00,,---,0.00,VWS V14.01,2013-03-03 05:20:00,
2013-03-03 00:25:00,30.8,17.4,29.95,WNW,295,2.0,9.0,57,0.00,,---,0.00,VWS V14.01,2013-03-03 05:25:00,
2013-03-03 00:30:00,30.7,17.3,29.95,WNW,288,5.0,5.0,57,0.00,,---,0.00,VWS V14.01,2013-03-03 05:30:00,
2013-03-03 00:35:00,30.7,17.3,29.95,WNW,292,3.0,6.0,57,0.00,,---,0.00,VWS V14.01,2013-03-03 05:35:00,
2013-03-03 00:40:00,30.7,16.9,29.95,NW,307,4.0,5.0,56,0.00,,---,0.00,VWS V14.01,2013-03-03 05:40:00,
2013-03-03 00:45:00,30.6,16.8,29.95,West,270,5.0,10.0,56,0.00,,---,0.00,VWS V14.01,2013-03-03 05:45:00,
2013-03-03 00:50:00,30.5,16.7,29.95,NW,309,5.0,7.0,56,0.00,,---,0.00,VWS V14.01,2013-03-03 05:50:00,
2013-03-03 00:55:00,30.5,16.7,29.95,WNW,294,7.0,15.0,56,0.00,,---,0.00,VWS V14.01,2013-03-03 05:55:00,
2013-03-03 01:00:00,30.4,17.0,29.95,West,273,5.0,8.0,57,0.00,,---,0.00,VWS V14.01,2013-03-03 06:00:00,
2013-03-03 01:05:00,30.4,16.6,29.95,NW,321,6.0,10.0,56,0.00,,---,0.00,VWS V14.01,2013-03-03 06:05:00,
2013-03-03 01:10:00,29.8,15.6,29.96,WNW,300,6.0,15.0,55,0.00,,---,0.00,VWS V14.01,2013-03-03 06:10:00,
2013-03-03 01:11:00,30.3,16.5,29.96,West,281,5.0,7.0,56,0.00,,---,0.00,VWS V14.01,2013-03-03 06:11:00,
2013-03-03 01:16:00,30.3,16.5,29.96,North,355,4.0,10.0,56,0.00,,---,0.00,VWS V14.01,2013-03-03 06:16:00,
2013-03-03 01:20:00,29.8,16.0,29.95,NW,321,3.0,11.0,56,0.00,,---,0.00,VWS V14.01,2013-03-03 06:20:00,
2013-03-03 01:21:00,30.2,16.4,29.96,WNW,288,5.0,6.0,56,0.00,,---,0.00,VWS V14.01,2013-03-03 06:21:00,
2013-03-03 01:26:00,30.2,16.0,29.96,NW,310,3.0,10.0,55,0.00,,---,0.00,VWS V14.01,2013-03-03 06:26:00,
2013-03-03 01:30:00,29.8,16.0,29.95,WNW,298,6.0,9.0,56,0.00,,---,0.00,VWS V14.01,2013-03-03 06:30:00,
2013-03-03 01:31:00,30.1,16.3,29.96,NNW,331,6.0,10.0,56,0.00,,---,0.00,VWS V14.01,2013-03-03 06:31:00,
2013-03-03 01:36:00,30.1,15.9,29.96,WSW,254,9.0,14.0,55,0.00,,---,0.00,VWS V14.01,2013-03-03 06:36:00,
2013-03-03 01:40:00,29.8,16.4,29.95,NW,310,10.0,19.0,57,0.00,,---,0.00,VWS V14.01,2013-03-03 06:40:00,
2013-03-03 01:41:00,30.1,16.3,29.96,NW,306,6.0,8.0,56,0.00,,---,0.00,VWS V14.01,2013-03-03 06:41:00,
2013-03-03 01:46:00,30.0,15.8,29.96,NW,320,6.0,10.0,55,0.00,,---,0.00,VWS V14.01,2013-03-03 06:46:00,
2013-03-03 01:50:00,29.7,16.8,29.95,North,5,3.0,11.0,58,0.00,,---,0.00,VWS V14.01,2013-03-03 06:50:00,
2013-03-03 01:51:00,29.9,16.1,29.96,NW,325,3.0,9.0,56,0.00,,---,0.00,VWS V14.01,2013-03-03 06:51:00,
2013-03-03 01:56:00,29.9,15.7,29.96,NNW,328,8.0,15.0,55,0.00,,---,0.00,VWS V14.01,2013-03-03 06:56:00,
2013-03-03 02:00:00,29.6,16.6,29.94,WNW,297,6.0,13.0,58,0.00,,---,0.00,VWS V14.01,2013-03-03 07:00:00,
2013-03-03 02:01:00,29.9,16.1,29.96,NNW,331,3.0,12.0,56,0.00,,---,0.00,VWS V14.01,2013-03-03 07:01:00,
2013-03-03 02:07:00,29.8,16.0,29.95,WNW,286,8.0,12.0,56,0.00,,---,0.00,VWS V14.01,2013-03-03 07:07:00,
2013-03-03 02:10:00,29.6,17.0,29.94,NW,311,6.0,10.0,59,0.00,,---,0.00,VWS V14.01,2013-03-03 07:10:00,
2013-03-03 02:12:00,29.8,15.6,29.96,NNW,331,5.0,11.0,55,0.00,,---,0.00,VWS V14.01,2013-03-03 07:12:00,
2013-03-03 02:17:00,29.8,16.0,29.95,WNW,302,2.0,11.0,56,0.00,,---,0.00,VWS V14.01,2013-03-03 07:17:00,
2013-03-03 02:20:00,29.6,17.0,29.94,WNW,301,8.0,14.0,59,0.00,,---,0.00,VWS V14.01,2013-03-03 07:20:00,
2013-03-03 02:22:00,29.8,16.0,29.95,WNW,291,3.0,6.0,56,0.00,,---,0.00,VWS V14.01,2013-03-03 07:22:00,
2013-03-03 02:27:00,29.8,16.4,29.95,NW,319,7.0,9.0,57,0.00,,---,0.00,VWS V14.01,2013-03-03 07:27:00,
2013-03-03 02:30:00,29.4,16.5,29.94,WNW,292,8.0,14.0,58,0.00,,---,0.00,VWS V14.01,2013-03-03 07:30:00,
2013-03-03 02:32:00,29.8,16.0,29.95,NW,313,4.0,8.0,56,0.00,,---,0.00,VWS V14.01,2013-03-03 07:32:00,
2013-03-03 02:37:00,29.7,16.4,29.95,WNW,295,7.0,9.0,57,0.00,,---,0.00,VWS V14.01,2013-03-03 07:37:00,
2013-03-03 02:40:00,29.4,16.1,29.94,West,278,5.0,10.0,57,0.00,,---,0.00,VWS V14.01,2013-03-03 07:40:00,
2013-03-03 02:42:00,29.7,16.4,29.95,WNW,300,9.0,11.0,57,0.00,,---,0.00,VWS V14.01,2013-03-03 07:42:00,
2013-03-03 02:47:00,29.7,16.4,29.94,WNW,284,8.0,11.0,57,0.00,,---,0.00,VWS V14.01,2013-03-03 07:47:00,
2013-03-03 02:50:00,29.3,16.0,29.94,WNW,298,10.0,15.0,57,0.00,,---,0.00,VWS V14.01,2013-03-03 07:50:00,
2013-03-03 02:52:00,29.7,16.8,29.94,WNW,284,5.0,10.0,58,0.00,,---,0.00,VWS V14.01,2013-03-03 07:52:00,
2013-03-03 02:57:00,29.7,16.8,29.94,WNW,299,9.0,13.0,58,0.00,,---,0.00,VWS V14.01,2013-03-03 07:57:00,
2013-03-03 03:00:00,29.2,15.5,29.93,NNW,336,4.0,19.0,56,0.00,,---,0.00,VWS V14.01,2013-03-03 08:00:00,
2013-03-03 03:02:00,29.6,16.6,29.94,NW,325,5.0,8.0,58,0.00,,---,0.00,VWS V14.01,2013-03-03 08:02:00,
2013-03-03 03:08:00,29.6,17.0,29.94,WNW,296,4.0,10.0,59,0.00,,---,0.00,VWS V14.01,2013-03-03 08:08:00,
2013-03-03 03:10:00,29.0,15.7,29.94,NNW,346,10.0,16.0,57,0.00,,---,0.00,VWS V14.01,2013-03-03 08:10:00,
2013-03-03 03:13:00,29.6,16.6,29.94,WNW,297,9.0,13.0,58,0.00,,---,0.00,VWS V14.01,2013-03-03 08:13:00,
2013-03-03 03:18:00,29.6,17.0,29.94,NNW,336,6.0,14.0,59,0.00,,---,0.00,VWS V14.01,2013-03-03 08:18:00,
2013-03-03 03:20:00,29.0,15.3,29.94,NW,319,3.0,10.0,56,0.00,,---,0.00,VWS V14.01,2013-03-03 08:20:00,
2013-03-03 03:23:00,29.5,16.6,29.94,West,265,11.0,13.0,58,0.00,,---,0.00,VWS V14.01,2013-03-03 08:23:00,
2013-03-03 03:28:00,29.5,16.6,29.94,WNW,290,13.0,13.0,58,0.00,,---,0.00,VWS V14.01,2013-03-03 08:28:00,
2013-03-03 03:30:00,29.0,15.3,29.94,WNW,296,4.0,12.0,56,0.00,,---,0.00,VWS V14.01,2013-03-03 08:30:00,
2013-03-03 03:33:00,29.4,16.5,29.94,WSW,256,8.0,9.0,58,0.00,,---,0.00,VWS V14.01,2013-03-03 08:33:00,
2013-03-03 03:38:00,29.4,16.5,29.94,WNW,297,6.0,10.0,58,0.00,,---,0.00,VWS V14.01,2013-03-03 08:38:00,
2013-03-03 03:40:00,29.0,14.9,29.94,West,273,8.0,14.0,55,0.00,,---,0.00,VWS V14.01,2013-03-03 08:40:00,
2013-03-03 03:43:00,29.3,15.6,29.94,NNW,327,10.0,15.0,56,0.00,,---,0.00,VWS V14.01,2013-03-03 08:43:00,
2013-03-03 03:48:00,29.3,16.4,29.94,WNW,303,8.0,15.0,58,0.00,,---,0.00,VWS V14.01,2013-03-03 08:48:00,
2013-03-03 03:50:00,29.0,15.3,29.94,WNW,298,10.0,16.0,56,0.00,,---,0.00,VWS V14.01,2013-03-03 08:50:00,
2013-03-03 03:53:00,29.2,15.9,29.94,NW,321,4.0,16.0,57,0.00,,---,0.00,VWS V14.01,2013-03-03 08:53:00,
2013-03-03 03:58:00,29.2,15.5,29.94,NNE,26,5.0,19.0,56,0.00,,---,0.00,VWS V14.01,2013-03-03 08:58:00,
2013-03-03 04:00:00,29.0,15.3,29.94,NW,310,7.0,12.0,56,0.00,,---,0.00,VWS V14.01,2013-03-03 09:00:00,
2013-03-03 04:03:00,29.1,15.8,29.94,NW,321,9.0,9.0,57,0.00,,---,0.00,VWS V14.01,2013-03-03 09:03:00,
2013-03-03 04:08:00,29.0,15.7,29.94,NNW,348,13.0,13.0,57,0.00,,---,0.00,VWS V14.01,2013-03-03 09:08:00,
2013-03-03 04:10:00,29.0,15.7,29.94,NNW,329,2.0,12.0,57,0.00,,---,0.00,VWS V14.01,2013-03-03 09:10:00,
2013-03-03 04:13:00,29.0,15.7,29.94,NW,321,8.0,10.0,57,0.00,,---,0.00,VWS V14.01,2013-03-03 09:13:00,
2013-03-03 04:18:00,29.0,15.3,29.94,NNW,330,7.0,10.0,56,0.00,,---,0.00,VWS V14.01,2013-03-03 09:18:00,
2013-03-03 04:20:00,29.0,15.7,29.94,West,266,14.0,14.0,57,0.00,,---,0.00,VWS V14.01,2013-03-03 09:20:00,
2013-03-03 04:24:00,28.9,15.6,29.94,NNW,331,11.0,11.0,57,0.00,,---,0.00,VWS V14.01,2013-03-03 09:24:00,
2013-03-03 04:29:00,29.0,15.3,29.94,NW,310,4.0,12.0,56,0.00,,---,0.00,VWS V14.01,2013-03-03 09:29:00,
2013-03-03 04:30:00,28.9,15.6,29.94,WNW,294,4.0,14.0,57,0.00,,---,0.00,VWS V14.01,2013-03-03 09:30:00,
2013-03-03 04:34:00,29.0,15.3,29.94,NW,306,3.0,14.0,56,0.00,,---,0.00,VWS V14.01,2013-03-03 09:34:00,
2013-03-03 04:39:00,29.0,14.9,29.94,West,271,6.0,14.0,55,0.00,,---,0.00,VWS V14.01,2013-03-03 09:39:00,
2013-03-03 04:40:00,28.8,15.5,29.94,West,265,8.0,11.0,57,0.00,,---,0.00,VWS V14.01,2013-03-03 09:40:00,
2013-03-03 04:44:00,29.0,15.3,29.94,NW,324,5.0,16.0,56,0.00,,---,0.00,VWS V14.01,2013-03-03 09:44:00,
2013-03-03 04:49:00,29.1,15.4,29.94,WNW,288,7.0,16.0,56,0.00,,---,0.00,VWS V14.01,2013-03-03 09:49:00,
2013-03-03 04:50:00,28.6,15.3,29.94,WNW,300,5.0,9.0,57,0.00,,---,0.00,VWS V14.01,2013-03-03 09:50:00,
2013-03-03 04:54:00,29.0,15.3,29.94,West,269,9.0,12.0,56,0.00,,---,0.00,VWS V14.01,2013-03-03 09:54:00,
2013-03-03 04:59:00,29.0,15.3,29.94,NW,314,6.0,12.0,56,0.00,,---,0.00,VWS V14.01,2013-03-03 09:59:00,
2013-03-03 05:00:00,28.5,15.2,29.94,NW,305,4.0,7.0,57,0.00,,---,0.00,VWS V14.01,2013-03-03 10:00:00,
2013-03-03 05:04:00,29.0,15.3,29.94,WNW,289,7.0,12.0,56,0.00,,---,0.00,VWS V14.01,2013-03-03 10:04:00,
2013-03-03 05:09:00,29.0,15.7,29.94,NNW,329,2.0,12.0,57,0.00,,---,0.00,VWS V14.01,2013-03-03 10:09:00,
2013-03-03 05:10:00,28.5,15.2,29.94,West,275,1.0,13.0,57,0.00,,---,0.00,VWS V14.01,2013-03-03 10:10:00,
2013-03-03 05:14:00,29.0,15.7,29.94,West,279,3.0,7.0,57,0.00,,---,0.00,VWS V14.01,2013-03-03 10:14:00,
2013-03-03 05:19:00,29.0,15.7,29.94,West,266,14.0,14.0,57,0.00,,---,0.00,VWS V14.01,2013-03-03 10:19:00,
2013-03-03 05:20:00,28.4,15.5,29.95,West,276,6.0,7.0,58,0.00,,---,0.00,VWS V14.01,2013-03-03 10:20:00,
2013-03-03 05:25:00,29.0,15.7,29.94,WNW,302,5.0,14.0,57,0.00,,---,0.00,VWS V14.01,2013-03-03 10:25:00,
2013-03-03 05:30:00,28.9,15.6,29.94,WNW,297,5.0,7.0,57,0.00,,---,0.00,VWS V14.01,2013-03-03 10:30:00,
2013-03-03 05:35:00,28.9,15.2,29.94,NW,312,10.0,11.0,56,0.00,,---,0.00,VWS V14.01,2013-03-03 10:35:00,
2013-03-03 05:40:00,28.8,15.5,29.94,WNW,293,3.0,8.0,57,0.00,,---,0.00,VWS V14.01,2013-03-03 10:40:00,
2013-03-03 05:45:00,28.7,15.4,29.94,NNW,329,3.0,8.0,57,0.00,,---,0.00,VWS V14.01,2013-03-03 10:45:00,
2013-03-03 05:50:00,28.6,14.9,29.94,WNW,302,4.0,7.0,56,0.00,,---,0.00,VWS V14.01,2013-03-03 10:50:00,
2013-03-03 05:55:00,28.5,15.2,29.94,WNW,290,4.0,7.0,57,0.00,,---,0.00,VWS V14.01,2013-03-03 10:55:00,
2013-03-03 06:00:00,28.3,16.2,29.95,WNW,302,5.0,8.0,60,0.00,,---,0.00,VWS V14.01,2013-03-03 11:00:00,
2013-03-03 06:01:00,28.5,15.2,29.94,NNW,338,6.0,13.0,57,0.00,,---,0.00,VWS V14.01,2013-03-03 11:01:00,
2013-03-03 06:06:00,28.5,14.8,29.94,WNW,289,2.0,13.0,56,0.00,,---,0.00,VWS V14.01,2013-03-03 11:06:00,
2013-03-03 06:10:00,28.3,16.2,29.96,West,274,4.0,9.0,60,0.00,,---,0.00,VWS V14.01,2013-03-03 11:10:00,
2013-03-03 06:11:00,28.5,15.2,29.94,West,278,4.0,4.0,57,0.00,,---,0.00,VWS V14.01,2013-03-03 11:11:00,
2013-03-03 06:16:00,28.4,15.1,29.94,NNW,341,2.0,7.0,57,0.00,,---,0.00,VWS V14.01,2013-03-03 11:16:00,
2013-03-03 06:20:00,28.4,15.9,29.96,WNW,283,3.0,10.0,59,0.00,,---,0.00,VWS V14.01,2013-03-03 11:20:00,
2013-03-03 06:21:00,28.4,15.9,29.95,NW,305,3.0,6.0,59,0.00,,---,0.00,VWS V14.01,2013-03-03 11:21:00,
2013-03-03 06:26:00,28.3,16.2,29.95,West,279,6.0,12.0,60,0.00,,---,0.00,VWS V14.01,2013-03-03 11:26:00,
2013-03-03 06:30:00,28.5,16.0,29.96,NNW,333,4.0,10.0,59,0.00,,---,0.00,VWS V14.01,2013-03-03 11:30:00,
2013-03-03 06:31:00,28.3,16.2,29.95,West,279,4.0,8.0,60,0.00,,---,0.00,VWS V14.01,2013-03-03 11:31:00,
2013-03-03 06:36:00,28.3,16.2,29.95,West,268,8.0,8.0,60,0.00,,---,0.00,VWS V14.01,2013-03-03 11:36:00,
2013-03-03 06:40:00,28.6,16.1,29.97,WSW,248,8.0,11.0,59,0.00,,---,0.00,VWS V14.01,2013-03-03 11:40:00,
2013-03-03 06:41:00,28.3,16.2,29.95,WNW,297,8.0,10.0,60,0.00,,---,0.00,VWS V14.01,2013-03-03 11:41:00,
2013-03-03 06:46:00,28.3,15.8,29.95,WNW,294,5.0,11.0,59,0.00,,---,0.00,VWS V14.01,2013-03-03 11:46:00,
2013-03-03 06:50:00,28.9,16.4,29.97,NW,318,0.0,9.0,59,0.00,,---,0.00,VWS V14.01,2013-03-03 11:50:00,
2013-03-03 06:51:00,28.3,16.2,29.95,WSW,257,8.0,8.0,60,0.00,,---,0.00,VWS V14.01,2013-03-03 11:51:00,
2013-03-03 06:57:00,28.3,16.2,29.95,WNW,289,5.0,8.0,60,0.00,,---,0.00,VWS V14.01,2013-03-03 11:57:00,
2013-03-03 07:00:00,29.2,16.7,29.97,WNW,300,2.0,9.0,59,0.00,,---,0.00,VWS V14.01,2013-03-03 12:00:00,
2013-03-03 07:02:00,28.3,16.2,29.95,West,273,4.0,9.0,60,0.00,,---,0.00,VWS V14.01,2013-03-03 12:02:00,
2013-03-03 07:07:00,28.3,16.2,29.96,NNW,341,5.0,9.0,60,0.00,,---,0.00,VWS V14.01,2013-03-03 12:07:00,
2013-03-03 07:10:00,29.5,16.6,29.97,NNW,336,5.0,10.0,58,0.00,,---,0.00,VWS V14.01,2013-03-03 12:10:00,
2013-03-03 07:12:00,28.3,16.2,29.96,WNW,301,8.0,8.0,60,0.00,,---,0.00,VWS V14.01,2013-03-03 12:12:00,
2013-03-03 07:17:00,28.4,15.9,29.96,NW,319,2.0,8.0,59,0.00,,---,0.00,VWS V14.01,2013-03-03 12:17:00,
2013-03-03 07:20:00,30.7,16.9,29.97,NW,318,5.0,9.0,56,0.00,,---,0.00,VWS V14.01,2013-03-03 12:20:00,
2013-03-03 07:22:00,28.4,15.9,29.96,NW,307,5.0,10.0,59,0.00,,---,0.00,VWS V14.01,2013-03-03 12:22:00,
2013-03-03 07:27:00,28.5,16.0,29.96,NW,318,6.0,10.0,59,0.00,,---,0.00,VWS V14.01,2013-03-03 12:27:00,
2013-03-03 07:30:00,31.5,16.8,29.97,West,273,10.0,10.0,54,0.00,,---,0.00,VWS V14.01,2013-03-03 12:30:00,
2013-03-03 07:32:00,28.5,16.0,29.96,NW,312,4.0,6.0,59,0.00,,---,0.00,VWS V14.01,2013-03-03 12:32:00,
2013-03-03 07:37:00,28.6,16.1,29.97,NW,306,4.0,9.0,59,0.00,,---,0.00,VWS V14.01,2013-03-03 12:37:00,
2013-03-03 07:40:00,31.0,16.3,29.97,NW,304,4.0,13.0,54,0.00,,---,0.00,VWS V14.01,2013-03-03 12:40:00,
2013-03-03 07:42:00,28.7,16.2,29.97,WNW,290,5.0,9.0,59,0.00,,---,0.00,VWS V14.01,2013-03-03 12:42:00,
2013-03-03 07:47:00,28.8,16.3,29.97,NW,311,2.0,9.0,59,0.00,,---,0.00,VWS V14.01,2013-03-03 12:47:00,
2013-03-03 07:50:00,31.5,17.2,29.98,West,263,7.0,12.0,55,0.00,,---,0.00,VWS V14.01,2013-03-03 12:50:00,
2013-03-03 07:52:00,28.9,16.4,29.97,NW,306,5.0,7.0,59,0.00,,---,0.00,VWS V14.01,2013-03-03 12:52:00,
2013-03-03 07:57:00,29.2,16.3,29.97,NNW,333,6.0,9.0,58,0.00,,---,0.00,VWS V14.01,2013-03-03 12:57:00,
2013-03-03 08:00:00,32.2,17.4,29.97,NW,305,10.0,15.0,54,0.00,,---,0.00,VWS V14.01,2013-03-03 13:00:00,
2013-03-03 08:03:00,29.3,16.8,29.97,WNW,302,5.0,5.0,59,0.00,,---,0.00,VWS V14.01,2013-03-03 13:03:00,
2013-03-03 08:08:00,29.5,16.6,29.97,NW,317,6.0,10.0,58,0.00,,---,0.00,VWS V14.01,2013-03-03 13:08:00,
2013-03-03 08:10:00,33.4,16.8,29.98,NW,312,13.0,18.0,50,0.00,,---,0.00,VWS V14.01,2013-03-03 13:10:00,
2013-03-03 08:13:00,29.8,16.8,29.97,NNW,333,2.0,9.0,58,0.00,,---,0.00,VWS V14.01,2013-03-03 13:13:00,
2013-03-03 08:18:00,30.5,17.1,29.97,NW,314,6.0,9.0,57,0.00,,---,0.00,VWS V14.01,2013-03-03 13:18:00,
2013-03-03 08:20:00,33.0,17.3,29.98,NW,323,9.0,17.0,52,0.00,,---,0.00,VWS V14.01,2013-03-03 13:20:00,
2013-03-03 08:23:00,31.2,16.9,29.97,West,273,5.0,7.0,55,0.00,,---,0.00,VWS V14.01,2013-03-03 13:23:00,
2013-03-03 08:28:00,31.4,16.7,29.97,NW,313,4.0,9.0,54,0.00,,---,0.00,VWS V14.01,2013-03-03 13:28:00,
2013-03-03 08:30:00,33.8,16.7,29.98,NNW,344,7.0,17.0,49,0.00,,---,0.00,VWS V14.01,2013-03-03 13:30:00,
2013-03-03 08:33:00,31.2,16.5,29.97,WNW,293,8.0,13.0,54,0.00,,---,0.00,VWS V14.01,2013-03-03 13:33:00,
2013-03-03 08:38:00,31.0,16.3,29.97,NW,308,6.0,13.0,54,0.00,,---,0.00,VWS V14.01,2013-03-03 13:38:00,
2013-03-03 08:40:00,34.6,17.9,29.98,NNW,346,5.0,12.0,50,0.00,,---,0.00,VWS V14.01,2013-03-03 13:40:00,
2013-03-03 08:43:00,30.9,16.2,29.97,North,355,3.0,9.0,54,0.00,,---,0.00,VWS V14.01,2013-03-03 13:43:00,
2013-03-03 08:48:00,31.4,17.1,29.98,NNW,335,4.0,11.0,55,0.00,,---,0.00,VWS V14.01,2013-03-03 13:48:00,
2013-03-03 08:50:00,33.8,17.1,29.98,WNW,299,7.0,13.0,50,0.00,,---,0.00,VWS V14.01,2013-03-03 13:50:00,
2013-03-03 08:53:00,31.7,16.1,29.98,West,275,12.0,15.0,52,0.00,,---,0.00,VWS V14.01,2013-03-03 13:53:00,
2013-03-03 08:59:00,31.9,17.2,29.97,NW,320,4.0,15.0,54,0.00,,---,0.00,VWS V14.01,2013-03-03 13:59:00,
2013-03-03 09:00:00,32.8,18.0,29.98,WNW,300,6.0,15.0,54,0.00,,---,0.00,VWS V14.01,2013-03-03 14:00:00,
2013-03-03 09:04:00,33.1,17.8,29.98,NW,304,9.0,10.0,53,0.00,,---,0.00,VWS V14.01,2013-03-03 14:04:00,
2013-03-03 09:09:00,33.4,16.8,29.98,NNW,348,7.0,18.0,50,0.00,,---,0.00,VWS V14.01,2013-03-03 14:09:00,
2013-03-03 09:10:00,31.4,17.1,29.98,West,273,10.0,16.0,55,0.00,,---,0.00,VWS V14.01,2013-03-03 14:10:00,
2013-03-03 09:14:00,32.8,16.2,29.98,NW,309,9.0,16.0,50,0.00,,---,0.00,VWS V14.01,2013-03-03 14:14:00,
2013-03-03 09:19:00,32.9,17.2,29.98,NNW,338,17.0,17.0,52,0.00,,---,0.00,VWS V14.01,2013-03-03 14:19:00,
2013-03-03 09:20:00,31.4,16.7,29.98,North,351,7.0,17.0,54,0.00,,---,0.00,VWS V14.01,2013-03-03 14:20:00,
2013-03-03 09:24:00,33.4,16.8,29.98,NNW,333,5.0,17.0,50,0.00,,---,0.00,VWS V14.01,2013-03-03 14:24:00,
2013-03-03 09:29:00,33.8,17.1,29.98,WNW,302,6.0,17.0,50,0.00,,---,0.00,VWS V14.01,2013-03-03 14:29:00,
2013-03-03 09:30:00,31.4,17.1,29.98,West,265,7.0,16.0,55,0.00,,---,0.00,VWS V14.01,2013-03-03 14:30:00,
2013-03-03 09:34:00,34.1,17.4,29.98,NNW,335,3.0,12.0,50,0.00,,---,0.00,VWS V14.01,2013-03-03 14:34:00,
2013-03-03 09:39:00,34.5,18.2,29.98,West,273,4.0,12.0,51,0.00,,---,0.00,VWS V14.01,2013-03-03 14:39:00,
2013-03-03 09:40:00,33.0,17.3,29.99,West,270,8.0,16.0,52,0.00,,---,0.00,VWS V14.01,2013-03-03 14:40:00,
2013-03-03 09:44:00,34.6,17.9,29.98,NW,321,11.0,13.0,50,0.00,,---,0.00,VWS V14.01,2013-03-03 14:44:00,
2013-03-03 09:49:00,33.8,17.1,29.98,WNW,299,7.0,13.0,50,0.00,,---,0.00,VWS V14.01,2013-03-03 14:49:00,
2013-03-03 09:50:00,32.5,16.8,29.98,WNW,302,13.0,15.0,52,0.00,,---,0.00,VWS V14.01,2013-03-03 14:50:00,
2013-03-03 09:54:00,33.5,17.3,29.99,WNW,289,3.0,15.0,51,0.00,,---,0.00,VWS V14.01,2013-03-03 14:54:00,
2013-03-03 09:59:00,32.8,18.0,29.98,WNW,290,8.0,8.0,54,0.00,,---,0.00,VWS V14.01,2013-03-03 14:59:00,
2013-03-03 10:00:00,33.7,17.5,29.98,WNW,295,8.0,18.0,51,0.00,,---,0.00,VWS V14.01,2013-03-03 15:00:00,
2013-03-03 10:04:00,32.0,17.2,29.98,WSW,250,11.0,14.0,54,0.00,,---,0.00,VWS V14.01,2013-03-03 15:04:00,
2013-03-03 10:10:00,31.4,17.1,29.98,WSW,252,9.0,10.0,55,0.00,,---,0.00,VWS V14.01,2013-03-03 15:10:00,
2013-03-03 10:15:00,31.3,17.0,29.98,West,268,13.0,16.0,55,0.00,,---,0.00,VWS V14.01,2013-03-03 15:15:00,
2013-03-03 10:20:00,31.4,17.1,29.98,NNW,327,5.0,7.0,55,0.00,,---,0.00,VWS V14.01,2013-03-03 15:20:00,
2013-03-03 10:25:00,31.7,17.0,29.98,West,259,10.0,15.0,54,0.00,,---,0.00,VWS V14.01,2013-03-03 15:25:00,
2013-03-03 10:30:00,31.4,17.1,29.98,West,264,9.0,9.0,55,0.00,,---,0.00,VWS V14.01,2013-03-03 15:30:00,
2013-03-03 10:35:00,32.5,16.9,29.99,West,281,9.0,16.0,52,0.00,,---,0.00,VWS V14.01,2013-03-03 15:35:00,
2013-03-03 10:40:00,33.0,17.3,29.98,WNW,293,5.0,8.0,52,0.00,,---,0.00,VWS V14.01,2013-03-03 15:40:00,
2013-03-03 10:45:00,32.3,16.7,29.99,WNW,289,11.0,15.0,52,0.00,,---,0.00,VWS V14.01,2013-03-03 15:45:00,
2013-03-03 10:50:00,32.7,17.5,29.98,WNW,297,11.0,14.0,53,0.00,,---,0.00,VWS V14.01,2013-03-03 15:50:00,
2013-03-03 10:55:00,33.4,17.7,29.98,WNW,292,11.0,18.0,52,0.00,,---,0.00,VWS V14.01,2013-03-03 15:55:00,
2013-03-03 11:00:00,33.8,17.1,29.98,NW,311,7.0,12.0,50,0.00,,---,0.00,VWS V14.01,2013-03-03 16:00:00,
2013-03-03 11:05:00,33.9,17.7,29.98,NW,304,8.0,15.0,51,0.00,,---,0.00,VWS V14.01,2013-03-03 16:05:00,
2013-03-03 11:10:00,34.7,18.4,29.98,WNW,292,6.0,12.0,51,0.00,,---,0.00,VWS V14.01,2013-03-03 16:10:00,
2013-03-03 11:15:00,34.8,17.6,29.98,WNW,288,13.0,17.0,49,0.00,,---,0.00,VWS V14.01,2013-03-03 16:15:00,
2013-03-03 11:20:00,35.0,17.8,29.97,West,276,4.0,17.0,49,0.00,,---,0.00,VWS V14.01,2013-03-03 16:20:00,
2013-03-03 11:21:00,34.9,18.6,29.98,NW,313,12.0,15.0,51,0.00,,---,0.00,VWS V14.01,2013-03-03 16:21:00,
2013-03-03 11:26:00,35.9,18.1,29.97,North,355,14.0,15.0,48,0.00,,---,0.00,VWS V14.01,2013-03-03 16:26:00,
2013-03-03 11:30:00,35.3,17.1,29.97,NW,309,6.0,19.0,47,0.00,,---,0.00,VWS V14.01,2013-03-03 16:30:00,
2013-03-03 11:31:00,36.2,17.9,29.97,WNW,303,15.0,15.0,47,0.00,,---,0.00,VWS V14.01,2013-03-03 16:31:00,
2013-03-03 11:36:00,34.7,17.5,29.98,WNW,286,13.0,17.0,49,0.00,,---,0.00,VWS V14.01,2013-03-03 16:36:00,
2013-03-03 11:40:00,37.3,19.4,29.96,WNW,299,13.0,14.0,48,0.00,,---,0.00,VWS V14.01,2013-03-03 16:40:00,
2013-03-03 11:41:00,34.3,17.6,29.97,West,273,9.0,16.0,50,0.00,,---,0.00,VWS V14.01,2013-03-03 16:41:00,
2013-03-03 11:46:00,33.7,17.0,29.97,WNW,301,10.0,17.0,50,0.00,,---,0.00,VWS V14.01,2013-03-03 16:46:00,
2013-03-03 11:50:00,36.1,16.8,29.96,NW,313,9.0,15.0,45,0.00,,---,0.00,VWS V14.01,2013-03-03 16:50:00,
2013-03-03 11:51:00,33.3,17.1,29.97,West,269,8.0,13.0,51,0.00,,---,0.00,VWS V14.01,2013-03-03 16:51:00,
2013-03-03 11:56:00,34.3,18.1,29.97,WNW,302,4.0,13.0,51,0.00,,---,0.00,VWS V14.01,2013-03-03 16:56:00,
2013-03-03 12:00:00,36.6,18.3,29.95,NNW,329,11.0,15.0,47,0.00,,---,0.00,VWS V14.01,2013-03-03 17:00:00,
2013-03-03 12:01:00,34.5,17.8,29.97,WNW,284,7.0,10.0,50,0.00,,---,0.00,VWS V14.01,2013-03-03 17:01:00,
2013-03-03 12:06:00,34.9,18.2,29.97,West,265,13.0,14.0,50,0.00,,---,0.00,VWS V14.01,2013-03-03 17:06:00,
2013-03-03 12:10:00,37.1,18.8,29.95,NW,309,3.0,14.0,47,0.00,,---,0.00,VWS V14.01,2013-03-03 17:10:00,
2013-03-03 12:11:00,34.9,18.2,29.96,West,273,8.0,16.0,50,0.00,,---,0.00,VWS V14.01,2013-03-03 17:11:00,
2013-03-03 12:16:00,34.8,17.6,29.97,WNW,290,8.0,16.0,49,0.00,,---,0.00,VWS V14.01,2013-03-03 17:16:00,
2013-03-03 12:20:00,36.5,18.7,29.94,North,355,6.0,20.0,48,0.00,,---,0.00,VWS V14.01,2013-03-03 17:20:00,
2013-03-03 12:21:00,35.2,18.0,29.97,WNW,282,13.0,14.0,49,0.00,,---,0.00,VWS V14.01,2013-03-03 17:21:00,
2013-03-03 12:26:00,35.0,17.3,29.96,West,275,6.0,19.0,48,0.00,,---,0.00,VWS V14.01,2013-03-03 17:26:00,
2013-03-03 12:30:00,37.6,17.7,29.95,WNW,292,9.0,14.0,44,0.00,,---,0.00,VWS V14.01,2013-03-03 17:30:00,
2013-03-03 12:32:00,35.4,17.7,29.96,NNW,343,2.0,7.0,48,0.00,,---,0.00,VWS V14.01,2013-03-03 17:32:00,
2013-03-03 12:37:00,36.5,19.2,29.96,NNW,341,5.0,12.0,49,0.00,,---,0.00,VWS V14.01,2013-03-03 17:37:00,
2013-03-03 12:40:00,36.3,16.5,29.94,WNW,282,8.0,16.0,44,0.00,,---,0.00,VWS V14.01,2013-03-03 17:40:00,
2013-03-03 12:42:00,36.9,17.0,29.96,West,260,13.0,13.0,44,0.00,,---,0.00,VWS V14.01,2013-03-03 17:42:00,
2013-03-03 12:47:00,36.3,17.0,29.96,NW,311,7.0,15.0,45,0.00,,---,0.00,VWS V14.01,2013-03-03 17:47:00,
2013-03-03 12:50:00,36.0,17.2,29.94,NNW,346,8.0,15.0,46,0.00,,---,0.00,VWS V14.01,2013-03-03 17:50:00,
2013-03-03 12:52:00,35.9,17.6,29.96,NNW,346,9.0,9.0,47,0.00,,---,0.00,VWS V14.01,2013-03-03 17:52:00,
2013-03-03 12:57:00,36.0,18.2,29.96,NW,326,2.0,15.0,48,0.00,,---,0.00,VWS V14.01,2013-03-03 17:57:00,
2013-03-03 13:00:00,36.0,16.7,29.94,WNW,284,8.0,17.0,45,0.00,,---,0.00,VWS V14.01,2013-03-03 18:00:00,
2013-03-03 13:02:00,36.8,18.0,29.95,WNW,300,6.0,14.0,46,0.00,,---,0.00,VWS V14.01,2013-03-03 18:02:00,
2013-03-03 13:07:00,37.1,18.2,29.95,WNW,299,8.0,14.0,46,0.00,,---,0.00,VWS V14.01,2013-03-03 18:07:00,
2013-03-03 13:10:00,34.8,16.6,29.94,NW,319,8.0,19.0,47,0.00,,---,0.00,VWS V14.01,2013-03-03 18:10:00,
2013-03-03 13:12:00,37.0,17.1,29.95,West,278,8.0,20.0,44,0.00,,---,0.00,VWS V14.01,2013-03-03 18:12:00,
2013-03-03 13:17:00,36.4,18.6,29.95,West,276,6.0,20.0,48,0.00,,---,0.00,VWS V14.01,2013-03-03 18:17:00,
2013-03-03 13:20:00,35.5,16.3,29.95,West,263,11.0,18.0,45,0.00,,---,0.00,VWS V14.01,2013-03-03 18:20:00,
2013-03-03 13:22:00,37.2,18.8,29.94,WNW,296,7.0,13.0,47,0.00,,---,0.00,VWS V14.01,2013-03-03 18:22:00,
2013-03-03 13:27:00,37.4,18.0,29.95,NW,323,10.0,14.0,45,0.00,,---,0.00,VWS V14.01,2013-03-03 18:27:00,
2013-03-03 13:30:00,35.3,17.1,29.94,WNW,287,7.0,17.0,47,0.00,,---,0.00,VWS V14.01,2013-03-03 18:30:00,
2013-03-03 13:32:00,37.2,16.8,29.95,WNW,297,11.0,16.0,43,0.00,,---,0.00,VWS V14.01,2013-03-03 18:32:00,
2013-03-03 13:37:00,36.7,16.3,29.94,NW,304,9.0,16.0,43,0.00,,---,0.00,VWS V14.01,2013-03-03 18:37:00,
2013-03-03 13:40:00,36.6,17.8,29.94,NNW,340,7.0,15.0,46,0.00,,---,0.00,VWS V14.01,2013-03-03 18:40:00,
2013-03-03 13:43:00,35.9,16.6,29.94,WNW,300,8.0,13.0,45,0.00,,---,0.00,VWS V14.01,2013-03-03 18:43:00,
2013-03-03 13:48:00,35.9,17.1,29.94,NNW,342,11.0,15.0,46,0.00,,---,0.00,VWS V14.01,2013-03-03 18:48:00,
2013-03-03 13:50:00,36.8,16.4,29.94,West,279,6.0,18.0,43,0.00,,---,0.00,VWS V14.01,2013-03-03 18:50:00,
2013-03-03 13:53:00,36.3,18.0,29.94,WNW,296,3.0,13.0,47,0.00,,---,0.00,VWS V14.01,2013-03-03 18:53:00,
2013-03-03 13:58:00,36.4,17.1,29.94,NW,315,12.0,17.0,45,0.00,,---,0.00,VWS V14.01,2013-03-03 18:58:00,
2013-03-03 14:00:00,37.2,17.3,29.94,West,267,9.0,15.0,44,0.00,,---,0.00,VWS V14.01,2013-03-03 19:00:00,
2013-03-03 14:03:00,35.2,17.0,29.94,WNW,294,4.0,14.0,47,0.00,,---,0.00,VWS V14.01,2013-03-03 19:03:00,
2013-03-03 14:08:00,34.7,16.5,29.94,WNW,286,9.0,19.0,47,0.00,,---,0.00,VWS V14.01,2013-03-03 19:08:00,
2013-03-03 14:10:00,37.0,17.1,29.94,WNW,283,7.0,17.0,44,0.00,,---,0.00,VWS V14.01,2013-03-03 19:10:00,
2013-03-03 14:13:00,35.3,17.6,29.94,NW,321,7.0,15.0,48,0.00,,---,0.00,VWS V14.01,2013-03-03 19:13:00,
2013-03-03 14:18:00,35.7,16.5,29.94,West,273,15.0,16.0,45,0.00,,---,0.00,VWS V14.01,2013-03-03 19:18:00,
2013-03-03 14:20:00,37.3,17.9,29.94,NW,324,11.0,16.0,45,0.00,,---,0.00,VWS V14.01,2013-03-03 19:20:00,
2013-03-03 14:23:00,34.6,16.0,29.94,WSW,252,6.0,17.0,46,0.00,,---,0.00,VWS V14.01,2013-03-03 19:23:00,
2013-03-03 14:28:00,35.1,17.4,29.94,West,281,5.0,17.0,48,0.00,,---,0.00,VWS V14.01,2013-03-03 19:28:00,
2013-03-03 14:30:00,38.0,18.0,29.94,NW,319,10.0,16.0,44,0.00,,---,0.00,VWS V14.01,2013-03-03 19:30:00,
2013-03-03 14:33:00,35.8,17.1,29.94,WNW,298,10.0,15.0,46,0.00,,---,0.00,VWS V14.01,2013-03-03 19:33:00,
2013-03-03 14:38:00,36.6,17.3,29.94,NW,325,5.0,15.0,45,0.00,,---,0.00,VWS V14.01,2013-03-03 19:38:00,
2013-03-03 14:40:00,37.0,17.6,29.94,NW,307,7.0,18.0,45,0.00,,---,0.00,VWS V14.01,2013-03-03 19:40:00,
2013-03-03 14:44:00,36.5,17.2,29.94,NW,320,14.0,17.0,45,0.00,,---,0.00,VWS V14.01,2013-03-03 19:44:00,
2013-03-03 14:49:00,36.9,16.5,29.94,West,260,9.0,18.0,43,0.00,,---,0.00,VWS V14.01,2013-03-03 19:49:00,
2013-03-03 14:50:00,37.4,18.0,29.94,WSW,250,8.0,13.0,45,0.00,,---,0.00,VWS V14.01,2013-03-03 19:50:00,
2013-03-03 14:54:00,37.0,16.6,29.94,WNW,286,6.0,14.0,43,0.00,,---,0.00,VWS V14.01,2013-03-03 19:54:00,
2013-03-03 14:59:00,37.1,17.2,29.94,West,279,7.0,15.0,44,0.00,,---,0.00,VWS V14.01,2013-03-03 19:59:00,
2013-03-03 15:04:00,36.9,16.5,29.94,West,261,8.0,17.0,43,0.00,,---,0.00,VWS V14.01,2013-03-03 20:04:00,
2013-03-03 15:09:00,37.0,17.1,29.94,WNW,290,15.0,17.0,44,0.00,,---,0.00,VWS V14.01,2013-03-03 20:09:00,
2013-03-03 15:14:00,37.0,17.6,29.94,NNW,341,5.0,15.0,45,0.00,,---,0.00,VWS V14.01,2013-03-03 20:14:00,
2013-03-03 15:19:00,37.3,17.9,29.94,NNW,339,13.0,16.0,45,0.00,,---,0.00,VWS V14.01,2013-03-03 20:19:00,
2013-03-03 15:20:00,37.4,17.0,29.94,NNW,338,7.0,17.0,43,0.00,,---,0.00,VWS V14.01,2013-03-03 20:20:00,
2013-03-03 15:24:00,37.6,18.2,29.93,NW,309,6.0,16.0,45,0.00,,---,0.00,VWS V14.01,2013-03-03 20:24:00,
2013-03-03 15:29:00,38.0,18.0,29.94,NW,319,11.0,16.0,44,0.00,,---,0.00,VWS V14.01,2013-03-03 20:29:00,
2013-03-03 15:34:00,37.5,17.6,29.94,West,274,12.0,18.0,44,0.00,,---,0.00,VWS V14.01,2013-03-03 20:34:00,
2013-03-03 15:39:00,37.0,17.6,29.94,NW,319,8.0,8.0,45,0.00,,---,0.00,VWS V14.01,2013-03-03 20:39:00,
2013-03-03 15:45:00,37.4,17.5,29.94,WNW,300,12.0,12.0,44,0.00,,---,0.00,VWS V14.01,2013-03-03 20:45:00,
2013-03-03 15:50:00,37.4,18.0,29.94,NW,308,4.0,9.0,45,0.00,,---,0.00,VWS V14.01,2013-03-03 20:50:00,
2013-03-03 15:55:00,36.6,16.8,29.94,NNW,339,15.0,17.0,44,0.00,,---,0.00,VWS V14.01,2013-03-03 20:55:00,
2013-03-03 16:00:00,35.9,16.1,29.94,NNW,348,6.0,12.0,44,0.00,,---,0.00,VWS V14.01,2013-03-03 21:00:00,
2013-03-03 16:05:00,35.9,17.1,29.94,NNW,331,4.0,13.0,46,0.00,,---,0.00,VWS V14.01,2013-03-03 21:05:00,
2013-03-03 16:10:00,36.5,16.7,29.94,North,350,9.0,9.0,44,0.00,,---,0.00,VWS V14.01,2013-03-03 21:10:00,
2013-03-03 16:15:00,37.1,16.7,29.94,NNW,336,7.0,17.0,43,0.00,,---,0.00,VWS V14.01,2013-03-03 21:15:00,
2013-03-03 16:20:00,37.4,17.0,29.94,NW,306,8.0,13.0,43,0.00,,---,0.00,VWS V14.01,2013-03-03 21:20:00,
2013-03-03 16:26:00,36.8,16.4,29.94,NW,307,10.0,16.0,43,0.00,,---,0.00,VWS V14.01,2013-03-03 21:26:00,
2013-03-03 16:30:00,34.6,16.0,29.96,WSW,258,8.0,18.0,46,0.00,,---,0.00,VWS V14.01,2013-03-03 21:30:00,
2013-03-03 16:31:00,36.4,15.5,29.94,NW,312,7.0,11.0,42,0.00,,---,0.00,VWS V14.01,2013-03-03 21:31:00,
2013-03-03 16:36:00,36.0,15.7,29.94,NW,316,6.0,15.0,43,0.00,,---,0.00,VWS V14.01,2013-03-03 21:36:00,
2013-03-03 16:41:00,36.1,16.3,29.94,NNW,327,5.0,8.0,44,0.00,,---,0.00,VWS V14.01,2013-03-03 21:41:00,
2013-03-03 16:46:00,36.6,16.8,29.94,NW,322,12.0,16.0,44,0.00,,---,0.00,VWS V14.01,2013-03-03 21:46:00,
2013-03-03 16:51:00,36.7,15.8,29.94,WNW,292,5.0,10.0,42,0.00,,---,0.00,VWS V14.01,2013-03-03 21:51:00,
2013-03-03 16:56:00,36.9,16.5,29.94,WNW,298,9.0,11.0,43,0.00,,---,0.00,VWS V14.01,2013-03-03 21:56:00,
2013-03-03 17:00:00,33.5,14.9,29.97,West,267,10.0,17.0,46,0.00,,---,0.00,VWS V14.01,2013-03-03 22:00:00,
2013-03-03 17:01:00,37.4,17.0,29.94,NW,313,12.0,12.0,43,0.00,,---,0.00,VWS V14.01,2013-03-03 22:01:00,
2013-03-03 17:06:00,36.7,16.3,29.95,WNW,294,12.0,16.0,43,0.00,,---,0.00,VWS V14.01,2013-03-03 22:06:00,
2013-03-03 17:10:00,33.3,15.7,29.97,NNW,338,8.0,16.0,48,0.00,,---,0.00,VWS V14.01,2013-03-03 22:10:00,
2013-03-03 17:11:00,36.0,16.2,29.95,WNW,292,14.0,17.0,44,0.00,,---,0.00,VWS V14.01,2013-03-03 22:11:00,
2013-03-03 17:16:00,35.9,16.6,29.95,NW,318,8.0,17.0,45,0.00,,---,0.00,VWS V14.01,2013-03-03 22:16:00,
2013-03-03 17:20:00,33.1,16.0,29.97,NNW,327,9.0,15.0,49,0.00,,---,0.00,VWS V14.01,2013-03-03 22:20:00,
2013-03-03 17:22:00,35.7,15.9,29.96,NW,313,6.0,18.0,44,0.00,,---,0.00,VWS V14.01,2013-03-03 22:22:00,
2013-03-03 17:27:00,34.9,15.7,29.96,West,259,10.0,18.0,45,0.00,,---,0.00,VWS V14.01,2013-03-03 22:27:00,
2013-03-03 17:30:00,32.9,15.4,29.98,West,270,7.0,19.0,48,0.00,,---,0.00,VWS V14.01,2013-03-03 22:30:00,
2013-03-03 17:32:00,34.4,15.8,29.96,West,265,12.0,12.0,46,0.00,,---,0.00,VWS V14.01,2013-03-03 22:32:00,
2013-03-03 17:37:00,34.2,15.6,29.96,NW,304,9.0,15.0,46,0.00,,---,0.00,VWS V14.01,2013-03-03 22:37:00,
2013-03-03 17:42:00,34.1,15.5,29.96,West,275,13.0,14.0,46,0.00,,---,0.00,VWS V14.01,2013-03-03 22:42:00,
2013-03-03 17:47:00,33.8,15.2,29.97,WNW,292,9.0,17.0,46,0.00,,---,0.00,VWS V14.01,2013-03-03 22:47:00,
2013-03-03 17:50:00,32.4,14.4,29.99,West,269,8.0,15.0,47,0.00,,---,0.00,VWS V14.01,2013-03-03 22:50:00,
2013-03-03 17:52:00,33.7,15.1,29.97,West,281,6.0,17.0,46,0.00,,---,0.00,VWS V14.01,2013-03-03 22:52:00,
2013-03-03 17:57:00,33.5,14.9,29.97,WNW,284,8.0,17.0,46,0.00,,---,0.00,VWS V14.01,2013-03-03 22:57:00,
2013-03-03 18:00:00,32.1,14.2,29.99,NW,309,15.0,22.0,47,0.00,,---,0.00,VWS V14.01,2013-03-03 23:00:00,
2013-03-03 18:02:00,33.5,15.4,29.97,West,280,11.0,11.0,47,0.00,,---,0.00,VWS V14.01,2013-03-03 23:02:00,
2013-03-03 18:07:00,33.4,15.8,29.97,NW,311,7.0,16.0,48,0.00,,---,0.00,VWS V14.01,2013-03-03 23:07:00,
2013-03-03 18:10:00,31.9,14.4,29.99,NW,315,13.0,15.0,48,0.00,,---,0.00,VWS V14.01,2013-03-03 23:10:00,
2013-03-03 18:13:00,33.3,15.7,29.97,NNW,344,8.0,12.0,48,0.00,,---,0.00,VWS V14.01,2013-03-03 23:13:00,
2013-03-03 18:18:00,33.2,16.1,29.97,NNW,333,5.0,12.0,49,0.00,,---,0.00,VWS V14.01,2013-03-03 23:18:00,
2013-03-03 18:20:00,31.7,14.7,29.99,WNW,302,13.0,15.0,49,0.00,,---,0.00,VWS V14.01,2013-03-03 23:20:00,
2013-03-03 18:23:00,33.0,15.5,29.98,WNW,290,13.0,19.0,48,0.00,,---,0.00,VWS V14.01,2013-03-03 23:23:00,
2013-03-03 18:28:00,33.0,15.5,29.98,WNW,294,8.0,19.0,48,0.00,,---,0.00,VWS V14.01,2013-03-03 23:28:00,
2013-03-03 18:30:00,31.7,15.2,30.00,WSW,241,13.0,19.0,50,0.00,,---,0.00,VWS V14.01,2013-03-03 23:30:00,
2013-03-03 18:33:00,32.9,15.4,29.98,WNW,302,5.0,11.0,48,0.00,,---,0.00,VWS V14.01,2013-03-03 23:33:00,
2013-03-03 18:38:00,32.8,15.3,29.98,NW,308,13.0,15.0,48,0.00,,---,0.00,VWS V14.01,2013-03-03 23:38:00,
2013-03-03 18:40:00,31.5,14.6,30.00,WSW,258,4.0,18.0,49,0.00,,---,0.00,VWS V14.01,2013-03-03 23:40:00,
2013-03-03 18:43:00,32.6,14.6,29.98,NW,320,5.0,13.0,47,0.00,,---,0.00,VWS V14.01,2013-03-03 23:43:00,
2013-03-03 18:48:00,32.5,14.5,29.99,WNW,287,8.0,15.0,47,0.00,,---,0.00,VWS V14.01,2013-03-03 23:48:00,
2013-03-03 18:50:00,31.2,14.7,30.00,WSW,256,6.0,14.0,50,0.00,,---,0.00,VWS V14.01,2013-03-03 23:50:00,
2013-03-03 18:53:00,32.3,14.3,29.99,WNW,294,10.0,22.0,47,0.00,,---,0.00,VWS V14.01,2013-03-03 23:53:00,
2013-03-03 18:58:00,32.2,14.2,29.99,NW,324,8.0,22.0,47,0.00,,---,0.00,VWS V14.01,2013-03-03 23:58:00,
2013-03-03 19:00:00,31.0,14.1,30.00,WNW,282,8.0,18.0,49,0.00,,---,0.00,VWS V14.01,2013-03-04 00:00:00,
2013-03-03 19:03:00,32.1,14.2,29.99,West,278,6.0,15.0,47,0.00,,---,0.00,VWS V14.01,2013-03-04 00:03:00,
2013-03-03 19:08:00,31.9,14.4,29.99,WNW,296,5.0,15.0,48,0.00,,---,0.00,VWS V14.01,2013-03-04 00:08:00,
2013-03-03 19:10:00,31.0,13.6,30.00,NW,318,7.0,17.0,48,0.00,,---,0.00,VWS V14.01,2013-03-04 00:10:00,
2013-03-03 19:13:00,31.8,14.4,29.99,WNW,298,3.0,13.0,48,0.00,,---,0.00,VWS V14.01,2013-03-04 00:13:00,
2013-03-03 19:18:00,31.7,14.3,29.99,NW,309,5.0,13.0,48,0.00,,---,0.00,VWS V14.01,2013-03-04 00:18:00,
2013-03-03 19:20:00,30.9,13.5,30.00,WNW,301,9.0,18.0,48,0.00,,---,0.00,VWS V14.01,2013-03-04 00:20:00,
2013-03-03 19:23:00,31.7,14.7,30.00,NW,306,13.0,13.0,49,0.00,,---,0.00,VWS V14.01,2013-03-04 00:23:00,
2013-03-03 19:28:00,31.7,15.2,30.00,WSW,248,12.0,13.0,50,0.00,,---,0.00,VWS V14.01,2013-03-04 00:28:00,
2013-03-03 19:30:00,30.8,13.9,30.01,WNW,296,5.0,18.0,49,0.00,,---,0.00,VWS V14.01,2013-03-04 00:30:00,
2013-03-03 19:34:00,31.6,14.6,30.00,WNW,297,3.0,18.0,49,0.00,,---,0.00,VWS V14.01,2013-03-04 00:34:00,
2013-03-03 19:39:00,31.5,14.6,30.00,WNW,286,6.0,18.0,49,0.00,,---,0.00,VWS V14.01,2013-03-04 00:39:00,
2013-03-03 19:40:00,30.6,13.7,30.01,West,263,11.0,19.0,49,0.00,,---,0.00,VWS V14.01,2013-03-04 00:40:00,
2013-03-03 19:44:00,31.4,14.5,30.00,NW,306,4.0,14.0,49,0.00,,---,0.00,VWS V14.01,2013-03-04 00:44:00,
2013-03-03 19:49:00,31.2,14.7,30.00,West,278,4.0,14.0,50,0.00,,---,0.00,VWS V14.01,2013-03-04 00:49:00,
2013-03-03 19:50:00,30.6,13.7,30.01,NW,313,10.0,19.0,49,0.00,,---,0.00,VWS V14.01,2013-03-04 00:50:00,
2013-03-03 19:54:00,31.0,14.6,30.00,NW,324,3.0,8.0,50,0.00,,---,0.00,VWS V14.01,2013-03-04 00:54:00,
2013-03-03 19:59:00,31.0,14.1,30.00,WSW,249,10.0,18.0,49,0.00,,---,0.00,VWS V14.01,2013-03-04 00:59:00,
2013-03-03 20:00:00,30.5,14.1,30.01,WNW,297,20.0,20.0,50,0.00,,---,0.00,VWS V14.01,2013-03-04 01:00:00,
2013-03-03 20:04:00,31.1,13.7,30.00,NW,317,11.0,15.0,48,0.00,,---,0.00,VWS V14.01,2013-03-04 01:04:00,
2013-03-03 20:09:00,31.0,13.6,30.00,NW,319,10.0,17.0,48,0.00,,---,0.00,VWS V14.01,2013-03-04 01:09:00,
2013-03-03 20:10:00,30.5,14.1,30.02,NW,307,6.0,20.0,50,0.00,,---,0.00,VWS V14.01,2013-03-04 01:10:00,
2013-03-03 20:14:00,30.9,13.5,30.00,NNW,327,9.0,17.0,48,0.00,,---,0.00,VWS V14.01,2013-03-04 01:14:00,
2013-03-03 20:19:00,30.9,13.5,30.00,West,269,13.0,13.0,48,0.00,,---,0.00,VWS V14.01,2013-03-04 01:19:00,
2013-03-03 20:20:00,30.4,14.0,30.02,WNW,300,15.0,20.0,50,0.00,,---,0.00,VWS V14.01,2013-03-04 01:20:00,
2013-03-03 20:25:00,31.0,13.6,30.00,NW,309,9.0,18.0,48,0.00,,---,0.00,VWS V14.01,2013-03-04 01:25:00,
2013-03-03 20:30:00,30.8,13.9,30.00,WSW,254,6.0,6.0,49,0.00,,---,0.00,VWS V14.01,2013-03-04 01:30:00,
2013-03-03 20:35:00,30.7,13.8,30.01,WNW,298,7.0,19.0,49,0.00,,---,0.00,VWS V14.01,2013-03-04 01:35:00,
2013-03-03 20:40:00,30.6,13.7,30.01,West,280,6.0,19.0,49,0.00,,---,0.00,VWS V14.01,2013-03-04 01:40:00,
2013-03-03 20:45:00,30.7,13.4,30.01,WNW,290,9.0,19.0,48,0.00,,---,0.00,VWS V14.01,2013-03-04 01:45:00,
2013-03-03 20:50:00,30.6,13.7,30.01,NNW,333,9.0,10.0,49,0.00,,---,0.00,VWS V14.01,2013-03-04 01:50:00,
2013-03-03 20:55:00,30.5,14.1,30.01,WNW,290,7.0,13.0,50,0.00,,---,0.00,VWS V14.01,2013-03-04 01:55:00,
2013-03-03 21:00:00,30.6,14.2,30.01,WNW,298,4.0,20.0,50,0.00,,---,0.00,VWS V14.01,2013-03-04 02:00:00,
2013-03-03 21:06:00,30.5,14.5,30.02,WNW,299,6.0,20.0,51,0.00,,---,0.00,VWS V14.01,2013-03-04 02:06:00,
2013-03-03 21:10:00,29.8,12.5,30.02,West,280,8.0,14.0,48,0.00,,---,0.00,VWS V14.01,2013-03-04 02:10:00,
2013-03-03 21:11:00,30.5,14.5,30.01,West,266,5.0,10.0,51,0.00,,---,0.00,VWS V14.01,2013-03-04 02:11:00,
2013-03-03 21:16:00,30.4,14.4,30.02,WNW,284,9.0,16.0,51,0.00,,---,0.00,VWS V14.01,2013-03-04 02:16:00,
2013-03-03 21:20:00,29.6,13.3,30.02,SW,229,6.0,9.0,50,0.00,,---,0.00,VWS V14.01,2013-03-04 02:20:00,
2013-03-03 21:21:00,30.4,14.0,30.02,West,263,7.0,15.0,50,0.00,,---,0.00,VWS V14.01,2013-03-04 02:21:00,
2013-03-03 21:26:00,30.2,13.8,30.02,WNW,286,5.0,15.0,50,0.00,,---,0.00,VWS V14.01,2013-03-04 02:26:00,
2013-03-03 21:30:00,29.7,12.9,30.02,West,270,4.0,14.0,49,0.00,,---,0.00,VWS V14.01,2013-03-04 02:30:00,
2013-03-03 21:31:00,30.1,13.3,30.02,WNW,289,7.0,17.0,49,0.00,,---,0.00,VWS V14.01,2013-03-04 02:31:00,
2013-03-03 21:36:00,30.0,13.2,30.02,NW,307,4.0,17.0,49,0.00,,---,0.00,VWS V14.01,2013-03-04 02:36:00,
2013-03-03 21:40:00,29.6,13.3,30.02,WNW,297,3.0,12.0,50,0.00,,---,0.00,VWS V14.01,2013-03-04 02:40:00,
2013-03-03 21:41:00,29.9,13.1,30.02,NW,319,4.0,6.0,49,0.00,,---,0.00,VWS V14.01,2013-03-04 02:41:00,
2013-03-03 21:46:00,29.8,13.0,30.02,NNW,333,8.0,10.0,49,0.00,,---,0.00,VWS V14.01,2013-03-04 02:46:00,
2013-03-03 21:50:00,29.6,13.7,30.02,North,5,4.0,11.0,51,0.00,,---,0.00,VWS V14.01,2013-03-04 02:50:00,
2013-03-03 21:51:00,29.8,13.4,30.02,NW,313,4.0,11.0,50,0.00,,---,0.00,VWS V14.01,2013-03-04 02:51:00,
2013-03-03 21:56:00,29.7,12.9,30.02,WNW,299,12.0,17.0,49,0.00,,---,0.00,VWS V14.01,2013-03-04 02:56:00,
2013-03-03 22:00:00,29.6,14.1,30.02,West,278,5.0,13.0,52,0.00,,---,0.00,VWS V14.01,2013-03-04 03:00:00,
2013-03-03 22:02:00,29.9,12.6,30.02,WNW,299,6.0,14.0,48,0.00,,---,0.00,VWS V14.01,2013-03-04 03:02:00,
2013-03-03 22:07:00,29.9,12.6,30.02,NW,305,8.0,14.0,48,0.00,,---,0.00,VWS V14.01,2013-03-04 03:07:00,
2013-03-03 22:10:00,29.6,14.1,30.02,WSW,245,4.0,9.0,52,0.00,,---,0.00,VWS V14.01,2013-03-04 03:10:00,
2013-03-03 22:12:00,29.8,13.0,30.02,WNW,298,6.0,8.0,49,0.00,,---,0.00,VWS V14.01,2013-03-04 03:12:00,
2013-03-03 22:17:00,29.7,12.9,30.02,West,263,6.0,9.0,49,0.00,,---,0.00,VWS V14.01,2013-03-04 03:17:00,
2013-03-03 22:20:00,29.6,15.0,30.02,NW,313,4.0,12.0,54,0.00,,---,0.00,VWS V14.01,2013-03-04 03:20:00,
2013-03-03 22:22:00,29.6,13.3,30.02,West,278,12.0,14.0,50,0.00,,---,0.00,VWS V14.01,2013-03-04 03:22:00,
2013-03-03 22:27:00,29.8,13.0,30.02,West,280,7.0,14.0,49,0.00,,---,0.00,VWS V14.01,2013-03-04 03:27:00,
2013-03-03 22:30:00,29.6,15.0,30.01,NNW,334,4.0,11.0,54,0.00,,---,0.00,VWS V14.01,2013-03-04 03:30:00,
2013-03-03 22:32:00,29.7,13.4,30.02,WSW,256,6.0,7.0,50,0.00,,---,0.00,VWS V14.01,2013-03-04 03:32:00,
2013-03-03 22:38:00,29.6,13.3,30.02,WNW,290,6.0,12.0,50,0.00,,---,0.00,VWS V14.01,2013-03-04 03:38:00,
2013-03-03 22:40:00,29.3,15.1,30.01,NW,309,7.0,12.0,55,0.00,,---,0.00,VWS V14.01,2013-03-04 03:40:00,
2013-03-03 22:43:00,29.6,13.3,30.02,NW,326,5.0,7.0,50,0.00,,---,0.00,VWS V14.01,2013-03-04 03:43:00,
2013-03-03 22:48:00,29.6,13.7,30.02,NNW,333,5.0,11.0,51,0.00,,---,0.00,VWS V14.01,2013-03-04 03:48:00,
2013-03-03 22:50:00,29.5,15.8,30.02,WNW,294,6.0,13.0,56,0.00,,---,0.00,VWS V14.01,2013-03-04 03:50:00,
2013-03-03 22:53:00,29.6,13.7,30.02,NNW,329,2.0,10.0,51,0.00,,---,0.00,VWS V14.01,2013-03-04 03:53:00,
2013-03-03 22:58:00,29.6,14.1,30.02,North,355,6.0,13.0,52,0.00,,---,0.00,VWS V14.01,2013-03-04 03:58:00,
2013-03-03 23:00:00,29.4,15.7,30.01,WNW,299,6.0,14.0,56,0.00,,---,0.00,VWS V14.01,2013-03-04 04:00:00,
2013-03-03 23:03:00,29.6,14.1,30.02,NW,310,2.0,9.0,52,0.00,,---,0.00,VWS V14.01,2013-03-04 04:03:00,
2013-03-03 23:08:00,29.6,14.1,30.02,WNW,302,2.0,9.0,52,0.00,,---,0.00,VWS V14.01,2013-03-04 04:08:00,
2013-03-03 23:10:00,29.4,16.1,30.01,WNW,286,6.0,13.0,57,0.00,,---,0.00,VWS V14.01,2013-03-04 04:10:00,
2013-03-03 23:13:00,29.6,14.6,30.02,West,271,6.0,8.0,53,0.00,,---,0.00,VWS V14.01,2013-03-04 04:13:00,
2013-03-03 23:18:00,29.6,15.0,30.02,NW,304,2.0,12.0,54,0.00,,---,0.00,VWS V14.01,2013-03-04 04:18:00,
2013-03-03 23:20:00,29.4,16.1,30.01,West,263,5.0,13.0,57,0.00,,---,0.00,VWS V14.01,2013-03-04 04:20:00,
2013-03-03 23:23:00,29.6,15.0,30.01,WNW,290,7.0,11.0,54,0.00,,---,0.00,VWS V14.01,2013-03-04 04:23:00,
2013-03-03 23:28:00,29.6,15.0,30.02,NW,304,3.0,11.0,54,0.00,,---,0.00,VWS V14.01,2013-03-04 04:28:00,
2013-03-03 23:30:00,29.2,15.5,30.02,West,265,5.0,13.0,56,0.00,,---,0.00,VWS V14.01,2013-03-04 04:30:00,
2013-03-03 23:33:00,29.4,15.2,30.01,NW,326,2.0,12.0,55,0.00,,---,0.00,VWS V14.01,2013-03-04 04:33:00,
2013-03-03 23:38:00,29.3,15.1,30.02,West,276,10.0,12.0,55,0.00,,---,0.00,VWS V14.01,2013-03-04 04:38:00,
2013-03-03 23:40:00,29.5,14.9,30.02,WNW,287,5.0,17.0,54,0.00,,---,0.00,VWS V14.01,2013-03-04 04:40:00,
2013-03-03 23:43:00,29.5,15.3,30.02,NW,305,6.0,12.0,55,0.00,,---,0.00,VWS V14.01,2013-03-04 04:43:00,
2013-03-03 23:49:00,29.5,15.3,30.02,WNW,302,13.0,13.0,55,0.00,,---,0.00,VWS V14.01,2013-03-04 04:49:00,
2013-03-03 23:50:00,29.6,14.6,30.02,WNW,294,0.0,19.0,53,0.00,,---,0.00,VWS V14.01,2013-03-04 04:50:00,
2013-03-03 23:54:00,29.5,15.8,30.02,WNW,299,5.0,8.0,56,0.00,,---,0.00,VWS V14.01,2013-03-04 04:54:00,
2013-03-03 23:59:00,29.5,15.8,30.01,NW,319,14.0,14.0,56,0.00,,---,0.00,VWS V14.01,2013-03-04 04:59:00,